sensor_id;sensor_type;location;lat;lon;timestamp;pressure;altitude;pressure_sealevel;temperature;humidity
17309;BME280;8772;42.804;23.426;2023-03-01T00:01:28;74716.50;;;-140.58;100.00
17309;BME280;8772;42.804;23.426;2023-03-01T00:03:56;74704.19;;;-140.58;100.00
17309;BME280;8772;42.804;23.426;2023-03-01T00:06:23;74689.84;;;-140.58;100.00
17309;BME280;8772;42.804;23.426;2023-03-01T00:08:51;74691.91;;;-140.58;100.00
17309;BME280;8772;42.804;23.426;2023-03-01T00:11:21;74698.06;;;-140.58;100.00
17309;BME280;8772;42.804;23.426;2023-03-01T00:13:51;74696.00;;;-140.58;100.00
17309;BME280;8772;42.804;23.426;2023-03-01T00:16:20;74712.41;;;-140.58;100.00
17309;BME280;8772;42.804;23.426;2023-03-01T00:18:48;74702.16;;;-140.58;100.00
17309;BME280;8772;42.804;23.426;2023-03-01T00:21:16;74693.94;;;-140.58;100.00
17309;BME280;8772;42.804;23.426;2023-03-01T00:23:43;74687.78;;;-140.58;100.00
17309;BME280;8772;42.804;23.426;2023-03-01T00:26:12;74691.91;;;-140.58;100.00
17309;BME280;8772;42.804;23.426;2023-03-01T00:28:41;74687.78;;;-140.58;100.00
17309;BME280;8772;42.804;23.426;2023-03-01T00:31:10;74683.69;;;-140.58;100.00
17309;BME280;8772;42.804;23.426;2023-03-01T00:33:37;74689.84;;;-140.58;100.00
17309;BME280;8772;42.804;23.426;2023-03-01T00:36:05;74683.69;;;-140.58;100.00
17309;BME280;8772;42.804;23.426;2023-03-01T00:38:35;74689.84;;;-140.58;100.00
17309;BME280;8772;42.804;23.426;2023-03-01T00:41:06;74691.91;;;-140.58;100.00
17309;BME280;8772;42.804;23.426;2023-03-01T00:43:33;74689.84;;;-140.58;100.00
17309;BME280;8772;42.804;23.426;2023-03-01T00:46:06;74696.00;;;-140.58;100.00
17309;BME280;8772;42.804;23.426;2023-03-01T00:48:33;74693.94;;;-140.58;100.00
17309;BME280;8772;42.804;23.426;2023-03-01T00:51:05;74683.69;;;-140.58;100.00
17309;BME280;8772;42.804;23.426;2023-03-01T00:53:32;74696.00;;;-140.58;100.00
17309;BME280;8772;42.804;23.426;2023-03-01T00:55:59;74677.53;;;-140.58;100.00
17309;BME280;8772;42.804;23.426;2023-03-01T00:58:25;74679.59;;;-140.58;100.00
17309;BME280;8772;42.804;23.426;2023-03-01T01:00:52;74667.28;;;-140.58;100.00
17309;BME280;8772;42.804;23.426;2023-03-01T01:06:45;74683.69;;;-140.58;100.00
17309;BME280;8772;42.804;23.426;2023-03-01T01:09:14;74683.69;;;-140.58;100.00
17309;BME280;8772;42.804;23.426;2023-03-01T01:11:44;74673.44;;;-140.58;100.00
17309;BME280;8772;42.804;23.426;2023-03-01T01:14:11;74677.53;;;-140.58;100.00
17309;BME280;8772;42.804;23.426;2023-03-01T01:16:38;74669.31;;;-140.58;100.00
17309;BME280;8772;42.804;23.426;2023-03-01T01:19:06;74663.16;;;-140.58;100.00
17309;BME280;8772;42.804;23.426;2023-03-01T01:21:33;74679.59;;;-140.58;100.00
17309;BME280;8772;42.804;23.426;2023-03-01T01:24:04;74683.69;;;-140.58;100.00
17309;BME280;8772;42.804;23.426;2023-03-01T01:26:33;74687.78;;;-140.58;100.00
17309;BME280;8772;42.804;23.426;2023-03-01T01:29:02;74708.31;;;-140.58;100.00
17309;BME280;8772;42.804;23.426;2023-03-01T01:31:30;74710.38;;;-140.58;100.00
17309;BME280;8772;42.804;23.426;2023-03-01T01:33:58;74704.19;;;-140.58;100.00
17309;BME280;8772;42.804;23.426;2023-03-01T01:36:27;74700.09;;;-140.58;100.00
17309;BME280;8772;42.804;23.426;2023-03-01T01:38:54;74693.94;;;-140.58;100.00
17309;BME280;8772;42.804;23.426;2023-03-01T01:41:23;74720.63;;;-140.58;100.00
17309;BME280;8772;42.804;23.426;2023-03-01T01:44:10;74712.41;;;-140.58;100.00
17309;BME280;8772;42.804;23.426;2023-03-01T01:46:39;74732.94;;;-140.58;100.00
17309;BME280;8772;42.804;23.426;2023-03-01T01:49:15;74732.94;;;-140.58;100.00
17309;BME280;8772;42.804;23.426;2023-03-01T01:51:45;74730.88;;;-140.58;100.00
17309;BME280;8772;42.804;23.426;2023-03-01T01:54:18;74712.41;;;-140.58;100.00
17309;BME280;8772;42.804;23.426;2023-03-01T01:56:52;74728.81;;;-140.58;100.00
17309;BME280;8772;42.804;23.426;2023-03-01T01:59:22;74737.03;;;-140.58;100.00
17309;BME280;8772;42.804;23.426;2023-03-01T02:01:50;74737.03;;;-140.58;100.00
17309;BME280;8772;42.804;23.426;2023-03-01T02:04:17;74747.28;;;-140.58;100.00
17309;BME280;8772;42.804;23.426;2023-03-01T02:06:49;74737.03;;;-140.58;100.00
17309;BME280;8772;42.804;23.426;2023-03-01T02:09:20;74745.25;;;-140.58;100.00
17309;BME280;8772;42.804;23.426;2023-03-01T02:11:50;74749.34;;;-140.58;100.00
17309;BME280;8772;42.804;23.426;2023-03-01T02:14:17;74753.44;;;-140.58;100.00
17309;BME280;8772;42.804;23.426;2023-03-01T02:16:45;74745.25;;;-140.58;100.00
17309;BME280;8772;42.804;23.426;2023-03-01T02:19:20;74757.56;;;-140.58;100.00
17309;BME280;8772;42.804;23.426;2023-03-01T02:21:57;74747.28;;;-140.58;100.00
17309;BME280;8772;42.804;23.426;2023-03-01T02:24:33;74745.25;;;-140.58;100.00
17309;BME280;8772;42.804;23.426;2023-03-01T02:27:03;74747.28;;;-140.58;100.00
17309;BME280;8772;42.804;23.426;2023-03-01T02:29:32;74765.75;;;-140.58;100.00
17309;BME280;8772;42.804;23.426;2023-03-01T02:32:00;74759.59;;;-140.58;100.00
17309;BME280;8772;42.804;23.426;2023-03-01T02:34:28;74757.56;;;-140.58;100.00
17309;BME280;8772;42.804;23.426;2023-03-01T02:37:00;74745.25;;;-140.58;100.00
17309;BME280;8772;42.804;23.426;2023-03-01T02:39:32;74773.97;;;-140.58;100.00
17309;BME280;8772;42.804;23.426;2023-03-01T02:42:02;74751.41;;;-140.58;100.00
17309;BME280;8772;42.804;23.426;2023-03-01T02:44:31;74741.13;;;-140.58;100.00
17309;BME280;8772;42.804;23.426;2023-03-01T02:47:02;74749.34;;;-140.58;100.00
17309;BME280;8772;42.804;23.426;2023-03-01T02:49:31;74761.66;;;-140.58;100.00
17309;BME280;8772;42.804;23.426;2023-03-01T02:52:21;74759.59;;;-140.58;100.00
17309;BME280;8772;42.804;23.426;2023-03-01T02:54:53;74757.56;;;-140.58;100.00
17309;BME280;8772;42.804;23.426;2023-03-01T02:57:25;74759.59;;;-140.58;100.00
17309;BME280;8772;42.804;23.426;2023-03-01T02:59:56;74761.66;;;-140.58;100.00
17309;BME280;8772;42.804;23.426;2023-03-01T03:02:26;74763.72;;;-140.58;100.00
17309;BME280;8772;42.804;23.426;2023-03-01T03:05:05;74755.50;;;-140.58;100.00
17309;BME280;8772;42.804;23.426;2023-03-01T03:07:34;74769.88;;;-140.58;100.00
17309;BME280;8772;42.804;23.426;2023-03-01T03:10:01;74757.56;;;-140.58;100.00
17309;BME280;8772;42.804;23.426;2023-03-01T03:12:28;74753.44;;;-140.58;100.00
17309;BME280;8772;42.804;23.426;2023-03-01T03:14:56;74753.44;;;-140.58;100.00
17309;BME280;8772;42.804;23.426;2023-03-01T03:17:23;74749.34;;;-140.58;100.00
17309;BME280;8772;42.804;23.426;2023-03-01T03:19:50;74745.25;;;-140.58;100.00
17309;BME280;8772;42.804;23.426;2023-03-01T03:22:17;74749.34;;;-140.58;100.00
17309;BME280;8772;42.804;23.426;2023-03-01T03:24:44;74741.13;;;-140.58;100.00
17309;BME280;8772;42.804;23.426;2023-03-01T03:27:11;74759.59;;;-140.58;100.00
17309;BME280;8772;42.804;23.426;2023-03-01T03:29:38;74769.88;;;-140.58;100.00
17309;BME280;8772;42.804;23.426;2023-03-01T03:32:06;74786.28;;;-140.58;100.00
17309;BME280;8772;42.804;23.426;2023-03-01T03:34:33;74790.38;;;-140.58;100.00
17309;BME280;8772;42.804;23.426;2023-03-01T03:37:00;74794.50;;;-140.58;100.00
17309;BME280;8772;42.804;23.426;2023-03-01T03:39:28;74790.38;;;-140.58;100.00
17309;BME280;8772;42.804;23.426;2023-03-01T03:42:00;74810.91;;;-140.58;100.00
17309;BME280;8772;42.804;23.426;2023-03-01T03:44:28;74796.53;;;-140.58;100.00
17309;BME280;8772;42.804;23.426;2023-03-01T03:49:59;74806.81;;;-140.58;100.00
17309;BME280;8772;42.804;23.426;2023-03-01T03:52:33;74815.00;;;-140.58;100.00
17309;BME280;8772;42.804;23.426;2023-03-01T03:55:00;74823.22;;;-140.58;100.00
17309;BME280;8772;42.804;23.426;2023-03-01T03:57:27;74806.81;;;-140.58;100.00
17309;BME280;8772;42.804;23.426;2023-03-01T04:00:12;74815.00;;;-140.58;100.00
17309;BME280;8772;42.804;23.426;2023-03-01T04:02:41;74815.00;;;-140.58;100.00
17309;BME280;8772;42.804;23.426;2023-03-01T04:05:09;74819.13;;;-140.58;100.00
17309;BME280;8772;42.804;23.426;2023-03-01T04:07:40;74825.28;;;-140.58;100.00
17309;BME280;8772;42.804;23.426;2023-03-01T04:10:10;74827.31;;;-140.58;100.00
17309;BME280;8772;42.804;23.426;2023-03-01T04:12:37;74839.63;;;-140.58;100.00
17309;BME280;8772;42.804;23.426;2023-03-01T04:15:06;74841.69;;;-140.58;100.00
17309;BME280;8772;42.804;23.426;2023-03-01T04:17:41;74835.53;;;-140.58;100.00
17309;BME280;8772;42.804;23.426;2023-03-01T04:20:09;74841.69;;;-140.58;100.00
17309;BME280;8772;42.804;23.426;2023-03-01T04:22:37;74851.94;;;-140.58;100.00
17309;BME280;8772;42.804;23.426;2023-03-01T04:25:04;74841.69;;;-140.58;100.00
17309;BME280;8772;42.804;23.426;2023-03-01T04:27:32;74835.53;;;-140.58;100.00
17309;BME280;8772;42.804;23.426;2023-03-01T04:29:59;74831.44;;;-140.58;100.00
17309;BME280;8772;42.804;23.426;2023-03-01T04:32:26;74823.22;;;-140.58;100.00
17309;BME280;8772;42.804;23.426;2023-03-01T04:34:54;74821.16;;;-140.58;100.00
17309;BME280;8772;42.804;23.426;2023-03-01T04:37:21;74815.00;;;-140.58;100.00
17309;BME280;8772;42.804;23.426;2023-03-01T04:39:49;74831.44;;;-140.58;100.00
17309;BME280;8772;42.804;23.426;2023-03-01T04:42:16;74841.69;;;-140.58;100.00
17309;BME280;8772;42.804;23.426;2023-03-01T04:44:43;74823.22;;;-140.58;100.00
17309;BME280;8772;42.804;23.426;2023-03-01T04:47:10;74825.28;;;-140.58;100.00
17309;BME280;8772;42.804;23.426;2023-03-01T04:49:37;74812.97;;;-140.58;100.00
17309;BME280;8772;42.804;23.426;2023-03-01T04:52:05;74800.66;;;-140.58;100.00
17309;BME280;8772;42.804;23.426;2023-03-01T04:54:33;74810.91;;;-140.58;100.00
17309;BME280;8772;42.804;23.426;2023-03-01T04:57:01;74798.59;;;-140.58;100.00
17309;BME280;8772;42.804;23.426;2023-03-01T04:59:28;74806.81;;;-140.58;100.00
17309;BME280;8772;42.804;23.426;2023-03-01T05:01:56;74802.69;;;-140.58;100.00
17309;BME280;8772;42.804;23.426;2023-03-01T05:04:23;74812.97;;;-140.58;100.00
17309;BME280;8772;42.804;23.426;2023-03-01T05:06:50;74815.00;;;-140.58;100.00
17309;BME280;8772;42.804;23.426;2023-03-01T05:09:20;74837.59;;;-140.58;100.00
17309;BME280;8772;42.804;23.426;2023-03-01T05:11:47;74827.31;;;-140.58;100.00
17309;BME280;8772;42.804;23.426;2023-03-01T05:14:13;74810.91;;;-140.58;100.00
17309;BME280;8772;42.804;23.426;2023-03-01T05:16:40;74815.00;;;-140.58;100.00
17309;BME280;8772;42.804;23.426;2023-03-01T05:19:07;74812.97;;;-140.58;100.00
17309;BME280;8772;42.804;23.426;2023-03-01T05:21:41;74819.13;;;-140.58;100.00
17309;BME280;8772;42.804;23.426;2023-03-01T05:24:23;74827.31;;;-140.58;100.00
17309;BME280;8772;42.804;23.426;2023-03-01T05:26:50;74821.16;;;-140.58;100.00
17309;BME280;8772;42.804;23.426;2023-03-01T05:29:18;74827.31;;;-140.58;100.00
17309;BME280;8772;42.804;23.426;2023-03-01T05:31:51;74819.13;;;-140.58;100.00
17309;BME280;8772;42.804;23.426;2023-03-01T05:34:18;74819.13;;;-140.58;100.00
17309;BME280;8772;42.804;23.426;2023-03-01T05:36:48;74806.81;;;-140.58;100.00
17309;BME280;8772;42.804;23.426;2023-03-01T05:39:19;74823.22;;;-140.58;100.00
17309;BME280;8772;42.804;23.426;2023-03-01T05:41:48;74808.84;;;-140.58;100.00
17309;BME280;8772;42.804;23.426;2023-03-01T05:44:18;74815.00;;;-140.58;100.00
17309;BME280;8772;42.804;23.426;2023-03-01T05:46:45;74806.81;;;-140.58;100.00
17309;BME280;8772;42.804;23.426;2023-03-01T05:49:12;74802.69;;;-140.58;100.00
17309;BME280;8772;42.804;23.426;2023-03-01T05:51:40;74802.69;;;-140.58;100.00
17309;BME280;8772;42.804;23.426;2023-03-01T05:54:08;74798.59;;;-140.58;100.00
17309;BME280;8772;42.804;23.426;2023-03-01T05:56:35;74798.59;;;-140.58;100.00
17309;BME280;8772;42.804;23.426;2023-03-01T05:59:04;74786.28;;;-140.58;100.00
17309;BME280;8772;42.804;23.426;2023-03-01T06:01:33;74782.19;;;-140.58;100.00
17309;BME280;8772;42.804;23.426;2023-03-01T06:04:00;74782.19;;;-140.58;100.00
17309;BME280;8772;42.804;23.426;2023-03-01T06:06:27;74792.44;;;-140.58;100.00
17309;BME280;8772;42.804;23.426;2023-03-01T06:08:54;74778.06;;;-140.58;100.00
17309;BME280;8772;42.804;23.426;2023-03-01T06:11:22;74782.19;;;-140.58;100.00
17309;BME280;8772;42.804;23.426;2023-03-01T06:13:49;74780.13;;;-140.58;100.00
17309;BME280;8772;42.804;23.426;2023-03-01T06:16:17;74767.81;;;-140.58;100.00
17309;BME280;8772;42.804;23.426;2023-03-01T06:18:44;74765.75;;;-140.58;100.00
17309;BME280;8772;42.804;23.426;2023-03-01T06:21:11;74747.28;;;-140.58;100.00
17309;BME280;8772;42.804;23.426;2023-03-01T06:23:38;74759.59;;;-140.58;100.00
17309;BME280;8772;42.804;23.426;2023-03-01T06:26:06;74763.72;;;-140.58;100.00
17309;BME280;8772;42.804;23.426;2023-03-01T06:28:33;74765.75;;;-140.58;100.00
17309;BME280;8772;42.804;23.426;2023-03-01T06:31:00;74761.66;;;-140.58;100.00
17309;BME280;8772;42.804;23.426;2023-03-01T06:33:28;74753.44;;;-140.58;100.00
17309;BME280;8772;42.804;23.426;2023-03-01T06:35:56;74761.66;;;-140.58;100.00
17309;BME280;8772;42.804;23.426;2023-03-01T06:38:23;74757.56;;;-140.58;100.00
17309;BME280;8772;42.804;23.426;2023-03-01T06:40:53;74763.72;;;-140.58;100.00
17309;BME280;8772;42.804;23.426;2023-03-01T06:43:21;74741.13;;;-140.58;100.00
17309;BME280;8772;42.804;23.426;2023-03-01T06:45:48;74745.25;;;-140.58;100.00
17309;BME280;8772;42.804;23.426;2023-03-01T06:48:16;74749.34;;;-140.58;100.00
17309;BME280;8772;42.804;23.426;2023-03-01T06:50:44;74739.09;;;-140.58;100.00
17309;BME280;8772;42.804;23.426;2023-03-01T06:53:11;74737.03;;;-140.58;100.00
17309;BME280;8772;42.804;23.426;2023-03-01T06:55:37;74722.66;;;-140.58;100.00
17309;BME280;8772;42.804;23.426;2023-03-01T06:58:04;74700.09;;;-140.58;100.00
17309;BME280;8772;42.804;23.426;2023-03-01T07:00:31;74704.19;;;-140.58;100.00
17309;BME280;8772;42.804;23.426;2023-03-01T07:02:59;74720.63;;;-140.58;100.00
17309;BME280;8772;42.804;23.426;2023-03-01T07:05:27;74706.25;;;-140.58;100.00
17309;BME280;8772;42.804;23.426;2023-03-01T07:07:55;74702.16;;;-140.58;100.00
17309;BME280;8772;42.804;23.426;2023-03-01T07:10:22;74712.41;;;-140.58;100.00
17309;BME280;8772;42.804;23.426;2023-03-01T07:12:49;74708.31;;;-140.58;100.00
17309;BME280;8772;42.804;23.426;2023-03-01T07:15:16;74687.78;;;-140.58;100.00
17309;BME280;8772;42.804;23.426;2023-03-01T07:17:43;74671.38;;;-140.58;100.00
17309;BME280;8772;42.804;23.426;2023-03-01T07:20:13;74677.53;;;-140.58;100.00
17309;BME280;8772;42.804;23.426;2023-03-01T07:22:40;74671.38;;;-140.58;100.00
17309;BME280;8772;42.804;23.426;2023-03-01T07:25:10;74657.00;;;-140.58;100.00
17309;BME280;8772;42.804;23.426;2023-03-01T07:27:37;74663.16;;;-140.58;100.00
17309;BME280;8772;42.804;23.426;2023-03-01T07:30:05;74648.81;;;-140.58;100.00
17309;BME280;8772;42.804;23.426;2023-03-01T07:32:32;74650.84;;;-140.58;100.00
17309;BME280;8772;42.804;23.426;2023-03-01T07:34:59;74642.66;;;-140.58;100.00
17309;BME280;8772;42.804;23.426;2023-03-01T07:37:25;74638.53;;;-140.58;100.00
17309;BME280;8772;42.804;23.426;2023-03-01T07:39:52;74618.03;;;-140.58;100.00
17309;BME280;8772;42.804;23.426;2023-03-01T07:42:20;74626.22;;;-140.58;100.00
17309;BME280;8772;42.804;23.426;2023-03-01T07:44:47;74620.06;;;-140.58;100.00
17309;BME280;8772;42.804;23.426;2023-03-01T07:47:14;74618.03;;;-140.58;100.00
17309;BME280;8772;42.804;23.426;2023-03-01T07:49:41;74609.81;;;-140.58;100.00
17309;BME280;8772;42.804;23.426;2023-03-01T07:52:11;74618.03;;;-140.58;100.00
17309;BME280;8772;42.804;23.426;2023-03-01T07:54:38;74615.97;;;-140.58;100.00
17309;BME280;8772;42.804;23.426;2023-03-01T07:57:05;74613.91;;;-140.58;100.00
17309;BME280;8772;42.804;23.426;2023-03-01T07:59:33;74585.19;;;-140.58;100.00
17309;BME280;8772;42.804;23.426;2023-03-01T08:02:00;74601.59;;;-140.58;100.00
17309;BME280;8772;42.804;23.426;2023-03-01T08:04:30;74576.97;;;-140.58;99.45
17309;BME280;8772;42.804;23.426;2023-03-01T08:06:56;74589.28;;;-140.58;100.00
17309;BME280;8772;42.804;23.426;2023-03-01T08:09:24;74570.81;;;-140.58;100.00
17309;BME280;8772;42.804;23.426;2023-03-01T08:11:51;74579.03;;;-140.58;100.00
17309;BME280;8772;42.804;23.426;2023-03-01T08:14:17;74579.03;;;-140.58;100.00
17309;BME280;8772;42.804;23.426;2023-03-01T08:16:54;74556.47;;;-140.58;100.00
17309;BME280;8772;42.804;23.426;2023-03-01T08:19:22;74554.41;;;-140.58;100.00
17309;BME280;8772;42.804;23.426;2023-03-01T08:21:50;74546.22;;;-140.58;100.00
17309;BME280;8772;42.804;23.426;2023-03-01T08:24:17;74531.84;;;-140.58;100.00
17309;BME280;8772;42.804;23.426;2023-03-01T08:26:44;74519.53;;;-140.58;100.00
17309;BME280;8772;42.804;23.426;2023-03-01T08:29:11;74527.75;;;-140.58;100.00
17309;BME280;8772;42.804;23.426;2023-03-01T08:31:39;74517.47;;;-140.58;100.00
17309;BME280;8772;42.804;23.426;2023-03-01T08:34:09;74505.16;;;-140.58;100.00
17309;BME280;8772;42.804;23.426;2023-03-01T08:36:38;74517.47;;;-140.58;100.00
17309;BME280;8772;42.804;23.426;2023-03-01T08:39:06;74499.00;;;-140.58;100.00
17309;BME280;8772;42.804;23.426;2023-03-01T08:41:33;74511.31;;;-140.58;100.00
17309;BME280;8772;42.804;23.426;2023-03-01T08:44:00;74494.91;;;-140.58;100.00
17309;BME280;8772;42.804;23.426;2023-03-01T08:46:29;74503.13;;;-140.58;100.00
17309;BME280;8772;42.804;23.426;2023-03-01T08:48:56;74492.84;;;-140.58;100.00
17309;BME280;8772;42.804;23.426;2023-03-01T08:51:25;74490.81;;;-140.58;100.00
17309;BME280;8772;42.804;23.426;2023-03-01T08:53:52;74488.75;;;-140.58;100.00
17309;BME280;8772;42.804;23.426;2023-03-01T08:56:19;74482.59;;;-140.58;100.00
17309;BME280;8772;42.804;23.426;2023-03-01T08:58:47;74478.50;;;-140.58;100.00
17309;BME280;8772;42.804;23.426;2023-03-01T09:01:17;74474.38;;;-140.58;100.00
17309;BME280;8772;42.804;23.426;2023-03-01T09:03:45;74455.94;;;-140.58;100.00
17309;BME280;8772;42.804;23.426;2023-03-01T09:06:13;74449.78;;;-140.58;100.00
17309;BME280;8772;42.804;23.426;2023-03-01T09:08:43;74443.63;;;-140.58;100.00
17309;BME280;8772;42.804;23.426;2023-03-01T09:11:12;74457.97;;;-140.58;100.00
17309;BME280;8772;42.804;23.426;2023-03-01T09:13:40;74437.47;;;-140.58;100.00
17309;BME280;8772;42.804;23.426;2023-03-01T09:16:08;74445.66;;;-140.58;100.00
17309;BME280;8772;42.804;23.426;2023-03-01T09:18:35;74433.34;;;-140.58;100.00
17309;BME280;8772;42.804;23.426;2023-03-01T09:21:03;74437.47;;;-140.58;100.00
17309;BME280;8772;42.804;23.426;2023-03-01T09:23:33;74441.56;;;-140.58;100.00
17309;BME280;8772;42.804;23.426;2023-03-01T09:26:03;74437.47;;;-140.58;100.00
17309;BME280;8772;42.804;23.426;2023-03-01T09:28:30;74425.16;;;-140.58;100.00
17309;BME280;8772;42.804;23.426;2023-03-01T09:30:58;74416.94;;;-140.58;100.00
17309;BME280;8772;42.804;23.426;2023-03-01T09:33:26;74423.09;;;-140.58;100.00
17309;BME280;8772;42.804;23.426;2023-03-01T09:35:56;74425.16;;;-140.58;100.00
17309;BME280;8772;42.804;23.426;2023-03-01T09:38:23;74404.63;;;-140.58;100.00
17309;BME280;8772;42.804;23.426;2023-03-01T09:40:50;74408.72;;;-140.58;100.00
17309;BME280;8772;42.804;23.426;2023-03-01T09:43:23;74388.22;;;-140.58;100.00
17309;BME280;8772;42.804;23.426;2023-03-01T09:45:54;74375.91;;;-140.58;100.00
17309;BME280;8772;42.804;23.426;2023-03-01T09:48:26;74367.69;;;-140.58;100.00
17309;BME280;8772;42.804;23.426;2023-03-01T09:50:54;74347.19;;;-140.58;100.00
17309;BME280;8772;42.804;23.426;2023-03-01T09:53:23;74355.38;;;-140.58;100.00
17309;BME280;8772;42.804;23.426;2023-03-01T09:55:55;74338.97;;;-140.58;100.00
17309;BME280;8772;42.804;23.426;2023-03-01T09:58:33;74334.88;;;-140.58;100.00
17309;BME280;8772;42.804;23.426;2023-03-01T10:01:06;74338.97;;;-140.58;100.00
17309;BME280;8772;42.804;23.426;2023-03-01T10:03:43;74314.34;;;-140.58;100.00
17309;BME280;8772;42.804;23.426;2023-03-01T10:06:15;74308.19;;;-140.58;100.00
17309;BME280;8772;42.804;23.426;2023-03-01T10:08:51;74289.72;;;-140.58;99.65
17309;BME280;8772;42.804;23.426;2023-03-01T10:11:23;74302.03;;;-140.58;99.35
17309;BME280;8772;42.804;23.426;2023-03-01T10:13:56;74293.84;;;-140.58;98.81
17309;BME280;8772;42.804;23.426;2023-03-01T10:16:32;74283.56;;;-140.58;99.12
17309;BME280;8772;42.804;23.426;2023-03-01T10:19:02;74269.22;;;-140.58;98.91
17309;BME280;8772;42.804;23.426;2023-03-01T10:21:30;74277.41;;;-140.58;97.90
17309;BME280;8772;42.804;23.426;2023-03-01T10:24:07;74279.47;;;-140.58;97.10
17309;BME280;8772;42.804;23.426;2023-03-01T10:26:46;74277.41;;;-140.58;97.37
17309;BME280;8772;42.804;23.426;2023-03-01T10:29:16;74267.16;;;-140.58;98.08
17309;BME280;8772;42.804;23.426;2023-03-01T10:31:44;74252.81;;;-140.58;98.92
17309;BME280;8772;42.804;23.426;2023-03-01T10:34:14;74254.84;;;-140.58;97.19
17309;BME280;8772;42.804;23.426;2023-03-01T10:36:43;74258.94;;;-140.58;94.53
17309;BME280;8772;42.804;23.426;2023-03-01T10:39:13;74252.81;;;-140.58;95.39
17309;BME280;8772;42.804;23.426;2023-03-01T10:41:52;74252.81;;;-140.58;95.35
17309;BME280;8772;42.804;23.426;2023-03-01T10:44:41;74258.94;;;-140.58;96.77
17309;BME280;8772;42.804;23.426;2023-03-01T10:47:14;74258.94;;;-140.58;94.18
17309;BME280;8772;42.804;23.426;2023-03-01T10:49:52;74269.22;;;-140.58;95.49
17309;BME280;8772;42.804;23.426;2023-03-01T10:52:21;74283.56;;;-140.58;96.88
17309;BME280;8772;42.804;23.426;2023-03-01T10:54:52;74256.91;;;-140.58;96.74
17309;BME280;8772;42.804;23.426;2023-03-01T10:57:29;74269.22;;;-140.58;93.30
17309;BME280;8772;42.804;23.426;2023-03-01T11:00:22;74271.25;;;-140.58;94.37
17309;BME280;8772;42.804;23.426;2023-03-01T11:03:02;74265.09;;;-140.58;96.32
17309;BME280;8772;42.804;23.426;2023-03-01T11:05:29;74261.00;;;-140.58;94.10
17309;BME280;8772;42.804;23.426;2023-03-01T11:08:00;74256.91;;;-140.58;91.69
17309;BME280;8772;42.804;23.426;2023-03-01T11:10:28;74256.91;;;-140.58;89.64
17309;BME280;8772;42.804;23.426;2023-03-01T11:13:07;74283.56;;;-140.58;91.73
17309;BME280;8772;42.804;23.426;2023-03-01T11:15:36;74281.53;;;-140.58;90.20
17309;BME280;8772;42.804;23.426;2023-03-01T11:18:03;74277.41;;;-140.58;88.21
17309;BME280;8772;42.804;23.426;2023-03-01T11:20:32;74281.53;;;-140.58;90.15
17309;BME280;8772;42.804;23.426;2023-03-01T11:23:04;74269.22;;;-140.58;87.51
17309;BME280;8772;42.804;23.426;2023-03-01T11:25:36;74269.22;;;-140.58;87.29
17309;BME280;8772;42.804;23.426;2023-03-01T11:28:07;74248.69;;;-140.58;89.17
17309;BME280;8772;42.804;23.426;2023-03-01T11:30:44;74265.09;;;-140.58;87.50
17309;BME280;8772;42.804;23.426;2023-03-01T11:33:19;74281.53;;;-140.58;88.64
17309;BME280;8772;42.804;23.426;2023-03-01T11:35:55;74285.63;;;-140.58;88.58
17309;BME280;8772;42.804;23.426;2023-03-01T11:38:25;74281.53;;;-140.58;88.85
17309;BME280;8772;42.804;23.426;2023-03-01T11:40:55;74285.63;;;-140.58;89.35
17309;BME280;8772;42.804;23.426;2023-03-01T11:43:35;74285.63;;;-140.58;88.81
17309;BME280;8772;42.804;23.426;2023-03-01T11:46:37;74314.34;;;-140.58;90.04
17309;BME280;8772;42.804;23.426;2023-03-01T11:49:29;74330.75;;;-140.58;93.51
17309;BME280;8772;42.804;23.426;2023-03-01T11:52:04;74306.16;;;-140.58;91.79
17309;BME280;8772;42.804;23.426;2023-03-01T11:54:43;74310.25;;;-140.58;93.20
17309;BME280;8772;42.804;23.426;2023-03-01T11:57:18;74338.97;;;-140.58;94.51
17309;BME280;8772;42.804;23.426;2023-03-01T11:59:58;74322.56;;;-140.58;93.68
17309;BME280;8772;42.804;23.426;2023-03-01T12:02:52;74336.91;;;-140.58;94.75
17309;BME280;8772;42.804;23.426;2023-03-01T12:05:36;74326.66;;;-140.58;94.72
17309;BME280;8772;42.804;23.426;2023-03-01T12:08:14;74363.59;;;-140.58;95.96
17309;BME280;8772;42.804;23.426;2023-03-01T12:10:50;74363.59;;;-140.58;97.15
17309;BME280;8772;42.804;23.426;2023-03-01T12:13:33;74386.16;;;-140.58;97.01
17309;BME280;8772;42.804;23.426;2023-03-01T12:16:28;74398.47;;;-140.58;98.77
17309;BME280;8772;42.804;23.426;2023-03-01T12:19:22;74419.00;;;-140.58;99.84
17309;BME280;8772;42.804;23.426;2023-03-01T12:22:04;74416.94;;;-140.58;99.96
17309;BME280;8772;42.804;23.426;2023-03-01T12:24:52;74421.03;;;-140.58;100.00
17309;BME280;8772;42.804;23.426;2023-03-01T12:27:37;74431.31;;;-140.58;100.00
17309;BME280;8772;42.804;23.426;2023-03-01T12:33:11;74455.94;;;-140.58;100.00
17309;BME280;8772;42.804;23.426;2023-03-01T12:35:54;74460.03;;;-140.58;100.00
17309;BME280;8772;42.804;23.426;2023-03-01T12:38:32;74451.81;;;-140.58;100.00
17309;BME280;8772;42.804;23.426;2023-03-01T12:41:25;74429.25;;;-140.58;100.00
17309;BME280;8772;42.804;23.426;2023-03-01T12:44:03;74437.47;;;-140.58;100.00
17309;BME280;8772;42.804;23.426;2023-03-01T12:46:44;74433.34;;;-140.58;100.00
17309;BME280;8772;42.804;23.426;2023-03-01T12:49:20;74412.84;;;-140.58;100.00
17309;BME280;8772;42.804;23.426;2023-03-01T12:51:56;74408.72;;;-140.58;100.00
17309;BME280;8772;42.804;23.426;2023-03-01T12:54:27;74404.63;;;-140.58;100.00
17309;BME280;8772;42.804;23.426;2023-03-01T12:56:57;74384.13;;;-140.58;100.00
17309;BME280;8772;42.804;23.426;2023-03-01T12:59:33;74394.38;;;-140.58;100.00